createdAt,value
2022-09-23T00:01:05.618Z,8.88
2022-09-23T00:03:33.385Z,9.10
2022-09-23T00:06:02.620Z,10.40
2022-09-23T00:08:30.311Z,9.85
2022-09-23T00:10:58.046Z,10.18
2022-09-23T00:13:25.503Z,8.75
2022-09-23T00:15:52.771Z,9.20
2022-09-23T00:18:20.837Z,9.52
2022-09-23T00:20:47.947Z,9.95
2022-09-23T00:23:15.017Z,9.45
2022-09-23T00:25:41.996Z,9.52
2022-09-23T00:28:08.949Z,9.32
2022-09-23T00:30:37.840Z,9.52
2022-09-23T00:33:04.766Z,10.15
2022-09-23T00:35:31.673Z,9.77
2022-09-23T00:37:58.614Z,10.32
2022-09-23T00:40:26.193Z,10.35
2022-09-23T00:42:53.241Z,9.52
2022-09-23T00:45:20.213Z,9.75
2022-09-23T00:48:03.746Z,10.82
2022-09-23T00:50:37.701Z,8.90
2022-09-23T00:55:39.229Z,10.35
2022-09-23T00:58:11.137Z,10.30
2022-09-23T01:00:38.922Z,9.68
2022-09-23T01:03:07.501Z,10.32
2022-09-23T01:05:34.955Z,10.48
2022-09-23T01:08:04.405Z,11.65
2022-09-23T01:10:42.296Z,10.98
2022-09-23T01:13:47.161Z,11.15
2022-09-23T01:16:50.063Z,12.05
2022-09-23T01:19:32.206Z,10.13
2022-09-23T01:21:59.120Z,10.07
2022-09-23T01:24:44.355Z,11.23
2022-09-23T01:27:17.040Z,9.85
2022-09-23T01:30:11.205Z,10.20
2022-09-23T01:32:56.614Z,11.23
2022-09-23T01:36:10.104Z,9.75
2022-09-23T01:38:59.135Z,9.98
2022-09-23T01:41:38.856Z,9.88
2022-09-23T01:44:30.674Z,11.05
2022-09-23T01:47:00.809Z,9.82
2022-09-23T01:49:39.868Z,9.68
2022-09-23T01:52:18.742Z,9.98
2022-09-23T01:54:57.896Z,9.98
2022-09-23T01:57:31.894Z,9.02
2022-09-23T02:00:14.020Z,7.38
2022-09-23T02:02:50.111Z,9.73
2022-09-23T02:05:19.172Z,10.30
2022-09-23T02:07:52.103Z,9.68
2022-09-23T02:10:25.149Z,8.77
2022-09-23T02:12:58.478Z,9.65
2022-09-23T02:15:35.658Z,8.25
2022-09-23T02:18:14.241Z,8.02
2022-09-23T02:20:41.540Z,8.80
2022-09-23T02:23:13.177Z,8.95
2022-09-23T02:26:08.835Z,9.38
2022-09-23T02:28:54.956Z,11.40
2022-09-23T02:31:27.782Z,10.45
2022-09-23T02:34:11.535Z,10.80
2022-09-23T02:37:13.701Z,9.40
2022-09-23T02:39:56.191Z,10.23
2022-09-23T02:42:31.085Z,10.43
2022-09-23T02:44:59.045Z,9.93
2022-09-23T02:47:31.420Z,11.65
2022-09-23T02:49:58.620Z,9.10
2022-09-23T02:52:25.897Z,9.23
2022-09-23T02:54:53.280Z,9.95
2022-09-23T02:57:20.512Z,10.38
2022-09-23T02:59:47.761Z,10.25
2022-09-23T03:02:36.141Z,9.80
2022-09-23T03:05:06.647Z,10.43
2022-09-23T03:08:05.112Z,10.27
2022-09-23T03:10:42.788Z,10.13
2022-09-23T03:13:25.119Z,9.10
2022-09-23T03:16:05.268Z,9.85
2022-09-23T03:18:48.982Z,10.52
2022-09-23T03:21:34.708Z,10.38
2022-09-23T03:24:06.081Z,10.40
2022-09-23T03:26:36.634Z,10.88
2022-09-23T03:29:06.557Z,10.68
2022-09-23T03:31:35.463Z,10.45
2022-09-23T03:34:07.263Z,10.75
2022-09-23T03:36:51.736Z,10.77
2022-09-23T03:41:58.656Z,11.35
2022-09-23T03:44:29.053Z,10.65
2022-09-23T03:47:02.425Z,10.65
2022-09-23T03:49:33.439Z,10.70
2022-09-23T03:52:00.972Z,11.77
2022-09-23T03:54:29.958Z,10.75
2022-09-23T03:56:58.401Z,11.52
2022-09-23T03:59:25.929Z,9.50
2022-09-23T04:01:53.368Z,9.48
2022-09-23T04:04:20.817Z,11.38
2022-09-23T04:06:50.793Z,11.18
2022-09-23T04:09:17.846Z,10.73
2022-09-23T04:11:44.812Z,9.98
2022-09-23T04:14:12.264Z,9.43
2022-09-23T04:16:39.667Z,10.70
2022-09-23T04:19:11.349Z,10.00
2022-09-23T04:21:39.231Z,9.05
2022-09-23T04:24:06.431Z,10.15
2022-09-23T04:26:34.316Z,10.00
2022-09-23T04:29:01.828Z,10.70
2022-09-23T04:31:29.013Z,10.45
2022-09-23T04:33:56.163Z,9.30
2022-09-23T04:36:23.461Z,10.00
2022-09-23T04:38:51.186Z,10.18
2022-09-23T04:41:18.993Z,10.18
2022-09-23T04:43:45.999Z,10.55
2022-09-23T04:46:15.328Z,11.05
2022-09-23T04:48:43.200Z,10.57
2022-09-23T04:51:16.205Z,9.63
2022-09-23T04:53:46.105Z,10.90
2022-09-23T04:56:18.547Z,11.77
2022-09-23T04:58:46.130Z,10.10
2022-09-23T05:01:19.896Z,10.18
2022-09-23T05:03:47.298Z,11.40
2022-09-23T05:06:15.048Z,9.95
2022-09-23T05:08:47.174Z,10.00
2022-09-23T05:11:14.210Z,11.02
2022-09-23T05:13:41.275Z,11.05
2022-09-23T05:16:12.433Z,11.15
2022-09-23T05:18:42.840Z,11.27
2022-09-23T05:21:11.678Z,10.82
2022-09-23T05:23:39.890Z,10.23
2022-09-23T05:26:09.564Z,11.85
2022-09-23T05:28:39.326Z,11.27
2022-09-23T05:31:17.153Z,12.13
2022-09-23T05:33:49.960Z,12.70
2022-09-23T05:36:20.701Z,11.80
2022-09-23T05:38:50.107Z,13.02
2022-09-23T05:41:19.027Z,11.80
2022-09-23T05:43:47.560Z,12.93
2022-09-23T05:46:19.783Z,11.73
2022-09-23T05:48:47.633Z,12.00
2022-09-23T05:51:18.468Z,11.32
2022-09-23T05:53:46.388Z,11.98
2022-09-23T05:56:17.375Z,12.60
2022-09-23T05:58:45.235Z,13.00
2022-09-23T06:01:14.333Z,12.32
2022-09-23T06:03:41.576Z,11.15
2022-09-23T06:06:14.615Z,12.25
2022-09-23T06:08:42.460Z,12.63
2022-09-23T06:11:09.717Z,12.88
2022-09-23T06:13:39.971Z,13.57
2022-09-23T06:16:13.171Z,12.02
2022-09-23T06:18:42.467Z,12.82
2022-09-23T06:21:13.277Z,11.07
2022-09-23T06:23:41.870Z,11.98
2022-09-23T06:26:11.904Z,12.48
2022-09-23T06:28:40.685Z,12.93
2022-09-23T06:31:13.570Z,12.40
2022-09-23T06:34:11.152Z,13.00
2022-09-23T06:36:44.342Z,11.13
2022-09-23T06:39:13.066Z,11.82
2022-09-23T06:41:40.473Z,12.63
2022-09-23T06:44:07.772Z,12.60
2022-09-23T06:46:36.936Z,11.68
2022-09-23T06:49:04.151Z,14.70
2022-09-23T06:51:31.131Z,13.05
2022-09-23T06:53:58.037Z,12.35
2022-09-23T06:56:25.160Z,11.85
2022-09-23T06:58:52.791Z,13.57
2022-09-23T07:01:20.204Z,12.27
2022-09-23T07:03:48.603Z,12.75
2022-09-23T07:06:17.243Z,12.60
2022-09-23T07:08:47.044Z,13.00
2022-09-23T07:11:15.754Z,11.68
2022-09-23T07:13:43.260Z,12.75
2022-09-23T07:16:11.180Z,12.07
2022-09-23T07:18:39.111Z,11.93
2022-09-23T07:21:23.054Z,11.40
2022-09-23T07:23:52.063Z,12.13
2022-09-23T07:26:20.252Z,12.65
2022-09-23T07:28:47.235Z,13.20
2022-09-23T07:31:33.523Z,14.20
2022-09-23T07:34:04.149Z,13.82
2022-09-23T07:36:32.899Z,13.02
2022-09-23T07:39:03.479Z,11.82
2022-09-23T07:41:32.674Z,12.73
2022-09-23T07:44:00.717Z,12.35
2022-09-23T07:46:30.337Z,12.05
2022-09-23T07:48:58.311Z,11.60
2022-09-23T07:51:35.764Z,11.60
2022-09-23T07:54:08.026Z,11.27
2022-09-23T07:56:36.199Z,11.98
2022-09-23T07:59:04.734Z,10.07
2022-09-23T08:01:35.056Z,12.30
2022-09-23T08:04:17.959Z,11.70
2022-09-23T08:06:50.583Z,11.43
2022-09-23T08:09:19.549Z,11.10
2022-09-23T08:11:46.651Z,11.40
2022-09-23T08:14:15.492Z,11.10
2022-09-23T08:16:47.209Z,11.60
2022-09-23T08:19:14.923Z,10.95
2022-09-23T08:21:42.089Z,12.20
2022-09-23T08:24:14.211Z,10.60
2022-09-23T08:26:41.287Z,11.27
2022-09-23T08:29:10.231Z,9.95
2022-09-23T08:31:37.214Z,11.45
2022-09-23T08:34:04.485Z,11.35
2022-09-23T08:36:31.915Z,10.13
2022-09-23T08:38:59.120Z,10.10
2022-09-23T08:41:29.446Z,10.25
2022-09-23T08:44:04.860Z,10.52
2022-09-23T08:46:37.755Z,11.35
2022-09-23T08:49:07.286Z,12.00
2022-09-23T08:51:42.579Z,11.43
2022-09-23T08:54:14.051Z,10.13
2022-09-23T08:56:44.682Z,10.23
2022-09-23T08:59:14.782Z,9.25
2022-09-23T09:01:50.204Z,9.32
2022-09-23T09:04:27.631Z,8.90
2022-09-23T09:07:31.686Z,10.60
2022-09-23T09:10:17.046Z,10.63
2022-09-23T09:12:50.545Z,9.88
2022-09-23T09:15:29.045Z,9.82
2022-09-23T09:18:01.895Z,10.27
2022-09-23T09:20:57.495Z,9.07
2022-09-23T09:23:50.270Z,9.40
2022-09-23T09:26:25.343Z,10.02
2022-09-23T09:29:17.079Z,10.60
2022-09-23T09:31:51.407Z,9.73
2022-09-23T09:34:30.536Z,9.70
2022-09-23T09:37:07.528Z,10.10
2022-09-23T09:39:36.119Z,9.93
2022-09-23T09:42:06.054Z,9.98
2022-09-23T09:44:48.445Z,9.80
2022-09-23T09:47:29.290Z,9.00
2022-09-23T09:50:04.360Z,10.75
2022-09-23T09:52:31.799Z,8.18
2022-09-23T09:55:14.139Z,8.10
2022-09-23T09:57:54.794Z,8.82
2022-09-23T10:00:27.771Z,9.23
2022-09-23T10:03:25.547Z,9.90
2022-09-23T10:05:54.538Z,9.35
2022-09-23T10:08:35.287Z,8.55
2022-09-23T10:11:17.583Z,8.15
2022-09-23T10:14:02.481Z,8.73
2022-09-23T10:16:32.163Z,8.52
2022-09-23T10:19:01.972Z,7.18
2022-09-23T10:21:37.726Z,8.50
2022-09-23T10:24:07.030Z,9.27
2022-09-23T10:26:42.062Z,7.85
2022-09-23T10:29:50.874Z,8.43
2022-09-23T10:32:25.861Z,8.30
2022-09-23T10:34:57.773Z,8.63
2022-09-23T10:37:44.585Z,8.10
2022-09-23T10:40:51.127Z,8.73
2022-09-23T10:44:08.263Z,8.68
2022-09-23T10:46:55.826Z,8.23
2022-09-23T10:49:37.929Z,8.07
2022-09-23T10:52:16.213Z,7.60
2022-09-23T10:54:58.475Z,8.27
2022-09-23T10:57:52.259Z,8.13
2022-09-23T11:00:46.945Z,8.07
2022-09-23T11:03:46.288Z,9.07
2022-09-23T11:06:18.384Z,9.02
2022-09-23T11:09:04.445Z,8.93
2022-09-23T11:11:54.966Z,7.97
2022-09-23T11:14:53.053Z,8.35
2022-09-23T11:17:38.897Z,8.00
2022-09-23T11:20:35.564Z,8.23
2022-09-23T11:23:40.434Z,9.63
2022-09-23T11:26:07.510Z,8.30
2022-09-23T11:28:59.099Z,7.57
2022-09-23T11:31:49.616Z,8.48
2022-09-23T11:34:44.108Z,8.32
2022-09-23T11:37:19.437Z,9.05
2022-09-23T11:39:59.662Z,8.90
2022-09-23T11:42:31.171Z,9.10
2022-09-23T11:45:03.234Z,8.68
2022-09-23T11:47:40.094Z,10.25
2022-09-23T11:50:39.037Z,8.23
2022-09-23T11:53:16.032Z,8.32
2022-09-23T11:55:57.623Z,9.23
2022-09-23T11:58:53.513Z,8.80
2022-09-23T12:01:38.546Z,9.60
2022-09-23T12:04:19.808Z,8.30
2022-09-23T12:07:14.801Z,9.18
2022-09-23T12:10:03.696Z,8.93
2022-09-23T12:12:49.013Z,8.50
2022-09-23T12:15:39.784Z,10.57
2022-09-23T12:18:35.969Z,8.45
2022-09-23T12:21:49.242Z,8.57
2022-09-23T12:24:44.247Z,9.60
2022-09-23T12:27:26.291Z,9.57
2022-09-23T12:29:59.763Z,9.35
2022-09-23T12:32:27.629Z,10.30
2022-09-23T12:34:55.561Z,8.77
2022-09-23T12:37:49.073Z,9.60
2022-09-23T12:40:44.809Z,9.00
2022-09-23T12:43:33.130Z,9.63
2022-09-23T12:46:27.620Z,8.05
2022-09-23T12:48:57.450Z,8.55
2022-09-23T12:51:29.719Z,9.00
2022-09-23T12:53:58.364Z,9.98
2022-09-23T12:56:48.686Z,11.90
2022-09-23T12:59:54.699Z,10.63
2022-09-23T13:02:33.405Z,10.23
2022-09-23T13:05:41.415Z,10.27
2022-09-23T13:08:18.343Z,9.95
2022-09-23T13:11:02.229Z,10.15
2022-09-23T13:13:33.377Z,10.52
2022-09-23T13:16:22.164Z,11.45
2022-09-23T13:18:54.705Z,9.18
2022-09-23T13:21:43.810Z,11.68
2022-09-23T13:24:14.412Z,9.98
2022-09-23T13:26:47.212Z,11.38
2022-09-23T13:29:24.091Z,10.60
2022-09-23T13:31:51.759Z,9.85
2022-09-23T13:34:23.142Z,10.73
2022-09-23T13:36:50.089Z,11.73
2022-09-23T13:39:24.545Z,11.40
2022-09-23T13:41:55.922Z,10.52
2022-09-23T13:44:23.712Z,11.48
2022-09-23T13:46:58.196Z,11.48
2022-09-23T13:49:27.064Z,11.45
2022-09-23T13:51:56.297Z,12.02
2022-09-23T13:54:32.249Z,13.40
2022-09-23T13:57:00.083Z,12.35
2022-09-23T13:59:28.564Z,13.68
2022-09-23T14:02:20.183Z,13.32
2022-09-23T14:04:47.540Z,13.25
2022-09-23T14:07:19.010Z,13.85
2022-09-23T14:09:52.309Z,11.82
2022-09-23T14:12:22.501Z,12.20
2022-09-23T14:14:51.832Z,12.57
2022-09-23T14:17:22.975Z,12.90
2022-09-23T14:19:50.861Z,11.82
2022-09-23T14:22:27.195Z,12.70
2022-09-23T14:24:56.283Z,12.75
2022-09-23T14:27:33.278Z,11.93
2022-09-23T14:30:03.105Z,12.70
2022-09-23T14:32:30.960Z,11.07
2022-09-23T14:35:00.899Z,11.10
2022-09-23T14:37:55.481Z,12.88
2022-09-23T14:40:26.661Z,13.63
2022-09-23T14:43:31.240Z,12.27
2022-09-23T14:45:59.141Z,13.45
2022-09-23T14:48:32.797Z,13.73
2022-09-23T14:51:02.302Z,14.32
2022-09-23T14:53:34.848Z,13.77
2022-09-23T14:56:07.898Z,11.65
2022-09-23T14:58:42.801Z,14.07
2022-09-23T15:01:28.762Z,15.45
2022-09-23T15:03:56.364Z,14.25
2022-09-23T15:06:24.529Z,14.80
2022-09-23T15:08:56.006Z,15.05
2022-09-23T15:11:23.272Z,14.85
2022-09-23T15:13:52.846Z,13.07
2022-09-23T15:16:27.872Z,14.45
2022-09-23T15:18:57.769Z,12.68
2022-09-23T15:21:30.473Z,12.68
2022-09-23T15:23:57.856Z,14.60
2022-09-23T15:26:40.950Z,15.55
2022-09-23T15:29:12.788Z,14.38
2022-09-23T15:31:39.669Z,13.20
2022-09-23T15:34:06.934Z,13.77
2022-09-23T15:36:34.999Z,13.90
2022-09-23T15:39:04.513Z,14.57
2022-09-23T15:41:33.356Z,15.23
2022-09-23T15:44:11.996Z,13.95
2022-09-23T15:46:40.806Z,15.23
2022-09-23T15:49:16.381Z,15.18
2022-09-23T15:51:43.452Z,16.33
2022-09-23T15:54:13.752Z,16.30
2022-09-23T15:56:40.653Z,16.08
2022-09-23T15:59:07.949Z,16.35
2022-09-23T16:01:36.626Z,14.30
2022-09-23T16:04:04.691Z,16.20
2022-09-23T16:06:32.250Z,14.40
2022-09-23T16:08:59.249Z,16.83
2022-09-23T16:11:31.561Z,15.10
2022-09-23T16:14:00.550Z,15.02
2022-09-23T16:16:28.390Z,15.40
2022-09-23T16:18:55.822Z,15.43
2022-09-23T16:21:26.015Z,15.52
2022-09-23T16:23:54.471Z,15.63
2022-09-23T16:26:21.736Z,16.15
2022-09-23T16:28:50.854Z,16.17
2022-09-23T16:31:18.363Z,15.68
2022-09-23T16:33:46.616Z,15.32
2022-09-23T16:36:28.728Z,15.80
2022-09-23T16:38:56.067Z,15.63
2022-09-23T16:41:31.652Z,15.02
2022-09-23T16:44:00.877Z,14.60
2022-09-23T16:46:29.482Z,15.50
2022-09-23T16:48:57.749Z,15.45
2022-09-23T16:51:38.363Z,15.57
2022-09-23T16:54:11.684Z,14.07
2022-09-23T16:56:44.384Z,15.10
2022-09-23T16:59:12.983Z,14.55
2022-09-23T17:01:58.579Z,15.02
2022-09-23T17:04:25.624Z,15.27
2022-09-23T17:06:54.414Z,14.98
2022-09-23T17:09:24.888Z,15.10
2022-09-23T17:12:11.401Z,14.02
2022-09-23T17:14:38.421Z,14.95
2022-09-23T17:17:06.537Z,14.57
2022-09-23T17:19:34.517Z,15.85
2022-09-23T17:22:01.493Z,15.68
2022-09-23T17:24:28.550Z,16.70
2022-09-23T17:26:55.696Z,13.32
2022-09-23T17:29:22.705Z,14.90
2022-09-23T17:31:49.809Z,14.45
2022-09-23T17:34:19.225Z,14.75
2022-09-23T17:36:46.522Z,14.05
2022-09-23T17:39:14.012Z,13.18
2022-09-23T17:41:41.040Z,14.00
2022-09-23T17:44:11.425Z,14.90
2022-09-23T17:46:38.752Z,13.68
2022-09-23T17:49:06.942Z,14.40
2022-09-23T17:51:34.085Z,14.88
2022-09-23T17:54:01.096Z,15.70
2022-09-23T17:56:31.075Z,13.38
2022-09-23T17:59:01.816Z,15.07
2022-09-23T18:01:29.382Z,16.35
2022-09-23T18:04:01.086Z,14.50
2022-09-23T18:06:31.851Z,15.63
2022-09-23T18:09:01.698Z,14.65
2022-09-23T18:11:30.351Z,15.00
2022-09-23T18:14:11.560Z,14.93
2022-09-23T18:16:40.662Z,14.63
2022-09-23T18:19:12.327Z,15.02
2022-09-23T18:21:42.196Z,16.65
2022-09-23T18:26:59.729Z,13.10
2022-09-23T18:29:27.339Z,14.52
2022-09-23T18:31:54.573Z,13.15
2022-09-23T18:34:22.061Z,14.02
2022-09-23T18:36:49.316Z,13.55
2022-09-23T18:39:17.052Z,13.90
2022-09-23T18:41:44.059Z,15.05
2022-09-23T18:44:11.313Z,14.85
2022-09-23T18:46:38.710Z,12.35
2022-09-23T18:49:24.279Z,14.63
2022-09-23T18:51:55.928Z,13.85
2022-09-23T18:54:24.846Z,14.23
2022-09-23T18:56:52.856Z,14.85
2022-09-23T18:59:24.993Z,15.23
2022-09-23T19:01:55.424Z,13.60
2022-09-23T19:04:24.548Z,16.33
2022-09-23T19:06:52.269Z,17.20
2022-09-23T19:09:19.508Z,15.30
2022-09-23T19:11:46.708Z,14.60
2022-09-23T19:14:14.149Z,15.45
2022-09-23T19:16:42.226Z,13.90
2022-09-23T19:19:09.875Z,13.93
2022-09-23T19:21:37.279Z,14.73
2022-09-23T19:24:07.395Z,13.88
2022-09-23T19:26:37.864Z,15.68
2022-09-23T19:29:08.180Z,15.18
2022-09-23T19:31:40.152Z,14.20
2022-09-23T19:34:12.412Z,14.65
2022-09-23T19:36:42.282Z,13.27
2022-09-23T19:39:14.704Z,15.40
2022-09-23T19:41:41.956Z,15.30
2022-09-23T19:44:08.976Z,14.40
2022-09-23T19:46:38.854Z,19.15
2022-09-23T19:49:07.195Z,17.10
2022-09-23T19:51:34.945Z,15.00
2022-09-23T19:54:03.774Z,15.48
2022-09-23T19:56:32.029Z,16.70
2022-09-23T19:59:00.064Z,15.38
2022-09-23T20:01:29.410Z,16.45
2022-09-23T20:03:56.856Z,15.77
2022-09-23T20:06:24.186Z,16.05
2022-09-23T20:08:51.146Z,17.70
2022-09-23T20:11:24.796Z,16.88
2022-09-23T20:14:01.607Z,16.88
2022-09-23T20:16:32.115Z,16.20
2022-09-23T20:19:00.485Z,17.13
2022-09-23T20:21:29.241Z,19.83
2022-09-23T20:23:57.070Z,17.90
2022-09-23T20:26:43.188Z,17.30
2022-09-23T20:29:11.154Z,18.45
2022-09-23T20:31:40.663Z,20.42
2022-09-23T20:34:08.278Z,18.48
2022-09-23T20:36:36.204Z,19.63
2022-09-23T20:39:08.001Z,18.65
2022-09-23T20:41:38.004Z,20.08
2022-09-23T20:44:14.269Z,20.83
2022-09-23T20:46:48.257Z,20.55
2022-09-23T20:49:16.838Z,19.27
2022-09-23T20:51:44.025Z,20.10
2022-09-23T20:54:12.146Z,19.63
2022-09-23T20:56:39.203Z,20.20
2022-09-23T20:59:06.451Z,19.88
2022-09-23T21:01:35.210Z,18.48
2022-09-23T21:04:05.014Z,20.67
2022-09-23T21:06:34.044Z,19.77
2022-09-23T21:09:01.127Z,18.70
2022-09-23T21:11:29.216Z,21.90
2022-09-23T21:13:56.605Z,23.30
2022-09-23T21:16:24.544Z,19.67
2022-09-23T21:18:55.391Z,20.25
2022-09-23T21:21:22.648Z,21.58
2022-09-23T21:23:51.085Z,22.65
2022-09-23T21:26:20.607Z,20.73
2022-09-23T21:28:50.213Z,20.67
2022-09-23T21:31:25.792Z,22.52
2022-09-23T21:34:04.649Z,21.10
2022-09-23T21:36:34.671Z,24.17
2022-09-23T21:39:01.855Z,20.65
2022-09-23T21:41:29.224Z,21.45
2022-09-23T21:43:58.012Z,21.52
2022-09-23T21:46:26.573Z,22.20
2022-09-23T21:48:55.448Z,23.73
2022-09-23T21:51:29.116Z,21.48
2022-09-23T21:53:57.734Z,21.02
2022-09-23T21:56:29.413Z,21.08
2022-09-23T21:58:57.887Z,23.00
2022-09-23T22:48:36.110Z,25.63
2022-09-23T22:51:05.047Z,28.90
2022-09-23T22:53:32.102Z,27.13
2022-09-23T22:56:01.191Z,28.70
2022-09-23T22:58:32.510Z,27.52
2022-09-23T23:00:59.886Z,28.35
2022-09-23T23:03:27.154Z,27.92
2022-09-23T23:05:57.601Z,28.88
2022-09-23T23:08:24.669Z,28.27
2022-09-23T23:10:51.696Z,30.98
2022-09-23T23:13:19.315Z,31.33
2022-09-23T23:15:46.284Z,29.20
2022-09-23T23:18:13.510Z,28.20
2022-09-23T23:20:40.473Z,27.77
2022-09-23T23:23:07.486Z,28.27
2022-09-23T23:25:34.753Z,28.77
2022-09-23T23:28:02.045Z,32.10
2022-09-23T23:30:28.976Z,30.73
2022-09-23T23:32:55.818Z,29.02
2022-09-23T23:35:22.751Z,31.35
2022-09-23T23:37:49.674Z,29.83
2022-09-23T23:40:20.126Z,30.92
2022-09-23T23:42:47.038Z,30.75
2022-09-23T23:45:14.063Z,30.33
2022-09-23T23:47:41.244Z,30.20
2022-09-23T23:50:09.830Z,33.33
2022-09-23T23:52:36.852Z,35.33
2022-09-23T23:55:04.000Z,35.78
2022-09-23T23:57:30.867Z,37.72
2022-09-23T23:59:57.892Z,33.67
